首页
METAR-TAF:

METAR-TAF

机场 :

何塞·马蒂国际机场

哈瓦那, 古巴

纬度: 22-59N, 经度: 082-24W, 海拔: 59米

当前天气观测

该预报发布于1小时和7分钟前的00:55 UTC
风速6节,风向东转东北
温度 25°C
湿度 83%
气压 1016 hPa
能见度10公里或以上
少量云层高于3600英尺

METAR: MUHA 220055Z 06006KT 9999 FEW036 25/22 Q1016

时间: 22:02 (02:02 UTC)

预报

该预报发布于3小时和2分钟前的23:00 UTC
预报有效从22日的 00点(UTC)到 22日的 24点(UTC)
风速5节,风向东转东北
能見度: 9000
少量云层高于3000英尺
成为
从 22日的 02点(UTC)到 22日的 04点(UTC)
风速3节,风向多变
成为
从 22日的 15点(UTC)到 22日的 16点(UTC)
风速10节,风向东北
短暂存在
从 22日的 20点(UTC)到 22日的 23点(UTC)
多云层高于2500英尺

TAF: MUHA 212300Z 2200/2224 06005KT 9000 FEW030 BECMG 2202/2204 VRB03KT BECMG 2215/2216 05010KT TEMPO 2220/2223 BKN025

超过4000个机场的气象观测和天气预报(METAR&TAF报告)。

可查询的气象台以黄色和红色小点在地图上表示。

将鼠标移到小点上方,可查看气象台名称。

然后点击查看天气观测和预报。

如需切换地图:点击带黑十字的绿色按钮放大地图;点击带横线的绿色按钮缩小地图;或者点击绿色箭头查看邻近地区的地图。


METAR-TAF: